createdAt,value
2018-04-26T00:01:50.795Z,23.43
2018-04-26T00:04:18.258Z,22.20
2018-04-26T00:06:45.716Z,21.57
2018-04-26T00:09:13.176Z,21.20
2018-04-26T00:11:40.631Z,22.27
2018-04-26T00:14:08.093Z,22.53
2018-04-26T00:16:36.314Z,21.57
2018-04-26T00:19:03.784Z,23.10
2018-04-26T00:21:34.272Z,23.50
2018-04-26T00:24:01.731Z,26.50
2018-04-26T00:26:29.188Z,23.67
2018-04-26T00:28:57.427Z,25.27
2018-04-26T00:31:24.880Z,24.03
2018-04-26T00:33:52.346Z,24.37
2018-04-26T00:36:20.563Z,24.97
2018-04-26T00:38:48.029Z,24.53
2018-04-26T00:41:15.488Z,22.37
2018-04-26T00:43:42.954Z,24.37
2018-04-26T00:46:10.404Z,26.67
2018-04-26T00:48:37.877Z,26.97
2018-04-26T00:51:05.332Z,33.10
2018-04-26T00:53:33.557Z,29.93
2018-04-26T00:56:01.008Z,28.00
2018-04-26T00:58:28.472Z,31.10
2018-04-26T01:00:55.929Z,28.97
2018-04-26T01:03:24.108Z,29.20
2018-04-26T01:05:51.581Z,30.67
2018-04-26T01:08:19.039Z,29.20
2018-04-26T01:10:47.258Z,28.93
2018-04-26T01:13:14.717Z,31.47
2018-04-26T01:15:42.945Z,31.90
2018-04-26T01:18:10.393Z,32.30
2018-04-26T01:20:37.852Z,36.37
2018-04-26T01:23:05.308Z,36.27
2018-04-26T01:25:32.768Z,34.53
2018-04-26T01:28:00.230Z,34.53
2018-04-26T01:30:28.462Z,34.83
2018-04-26T01:32:55.920Z,31.40
2018-04-26T01:35:24.152Z,33.80
2018-04-26T01:37:51.609Z,32.87
2018-04-26T01:40:20.964Z,36.57
2018-04-26T01:42:48.419Z,33.97
2018-04-26T01:45:16.685Z,32.77
2018-04-26T01:47:44.132Z,34.60
2018-04-26T01:50:11.601Z,32.77
2018-04-26T01:52:39.056Z,34.30
2018-04-26T01:55:07.288Z,30.73
2018-04-26T01:57:34.749Z,35.77
2018-04-26T02:00:02.976Z,34.40
2018-04-26T02:02:30.430Z,34.03
2018-04-26T02:04:57.892Z,32.60
2018-04-26T02:07:26.117Z,30.97
2018-04-26T02:09:53.576Z,32.00
2018-04-26T02:12:21.801Z,31.23
2018-04-26T02:14:52.466Z,32.07
2018-04-26T02:17:19.913Z,31.67
2018-04-26T02:19:48.159Z,33.57
2018-04-26T02:22:15.609Z,36.13
2018-04-26T02:24:43.836Z,33.77
2018-04-26T02:27:11.293Z,33.83
2018-04-26T02:29:39.517Z,36.70
2018-04-26T02:32:06.973Z,38.40
2018-04-26T02:34:35.203Z,36.50
2018-04-26T02:37:02.655Z,38.70
2018-04-26T02:39:30.884Z,38.03
2018-04-26T02:41:58.346Z,34.30
2018-04-26T02:44:25.807Z,37.00
2018-04-26T02:46:54.038Z,38.60
2018-04-26T02:49:21.508Z,38.87
2018-04-26T02:51:48.977Z,40.00
2018-04-26T02:54:17.200Z,38.67
2018-04-26T02:56:44.658Z,40.40
2018-04-26T02:59:12.889Z,37.20
2018-04-26T03:01:40.358Z,40.23
2018-04-26T03:04:07.820Z,40.00
2018-04-26T03:06:36.041Z,41.83
2018-04-26T03:09:03.506Z,41.37
2018-04-26T03:11:31.732Z,43.00
2018-04-26T03:13:59.198Z,41.87
2018-04-26T03:16:27.423Z,42.43
2018-04-26T03:18:54.875Z,44.20
2018-04-26T03:21:22.353Z,42.10
2018-04-26T03:23:50.576Z,43.70
2018-04-26T03:26:18.034Z,43.33
2018-04-26T03:28:46.257Z,47.80
2018-04-26T03:31:13.795Z,44.20
2018-04-26T03:33:48.525Z,45.13
2018-04-26T03:36:15.984Z,48.40
2018-04-26T03:38:43.438Z,42.53
2018-04-26T03:41:10.908Z,41.20
2018-04-26T03:43:39.128Z,40.47
2018-04-26T03:46:07.479Z,41.97
2018-04-26T03:48:34.936Z,45.57
2018-04-26T03:51:02.402Z,39.83
2018-04-26T03:53:29.866Z,40.13
2018-04-26T03:55:58.087Z,40.03
2018-04-26T03:58:25.556Z,45.13
2018-04-26T04:04:06.262Z,40.80
2018-04-26T04:06:33.733Z,43.53
2018-04-26T04:09:01.187Z,41.60
2018-04-26T04:11:28.653Z,35.20
2018-04-26T04:13:56.196Z,39.00
2018-04-26T04:16:23.602Z,37.10
2018-04-26T04:18:51.828Z,31.57
2018-04-26T04:21:19.293Z,30.77
2018-04-26T04:23:46.744Z,30.30
2018-04-26T04:26:14.208Z,29.33
2018-04-26T04:28:41.673Z,25.77
2018-04-26T04:31:09.136Z,25.70
2018-04-26T04:33:36.596Z,23.33
2018-04-26T04:36:04.065Z,21.77
2018-04-26T04:38:32.284Z,22.10
2018-04-26T04:40:59.748Z,20.40
2018-04-26T04:43:27.985Z,20.03
2018-04-26T04:45:55.461Z,23.17
2018-04-26T04:48:22.918Z,18.47
2018-04-26T04:50:51.235Z,19.87
2018-04-26T04:53:18.705Z,18.60
2018-04-26T04:55:46.938Z,19.67
2018-04-26T04:58:20.477Z,19.60
2018-04-26T05:00:47.935Z,20.23
2018-04-26T05:03:15.388Z,20.27
2018-04-26T05:05:42.864Z,19.87
2018-04-26T05:08:10.337Z,19.10
2018-04-26T05:10:37.813Z,21.17
2018-04-26T05:13:05.285Z,21.30
2018-04-26T05:15:32.747Z,21.07
2018-04-26T05:18:00.196Z,20.37
2018-04-26T05:20:27.671Z,22.37
2018-04-26T05:22:55.124Z,24.60
2018-04-26T05:25:22.611Z,21.13
2018-04-26T05:27:50.060Z,20.97
2018-04-26T05:30:17.530Z,19.27
2018-04-26T05:32:45.743Z,16.63
2018-04-26T05:35:13.208Z,16.30
2018-04-26T05:37:40.669Z,17.80
2018-04-26T05:40:08.139Z,18.10
2018-04-26T05:42:35.597Z,18.93
2018-04-26T05:45:04.040Z,16.53
2018-04-26T05:47:31.510Z,15.40
2018-04-26T05:49:58.964Z,17.60
2018-04-26T05:52:26.450Z,16.70
2018-04-26T05:54:53.912Z,16.40
2018-04-26T05:57:21.390Z,12.77
2018-04-26T05:59:48.854Z,18.20
2018-04-26T06:02:16.317Z,18.90
2018-04-26T06:04:43.779Z,19.03
2018-04-26T06:07:12.018Z,21.40
2018-04-26T06:09:39.482Z,21.73
2018-04-26T06:12:06.950Z,20.17
2018-04-26T06:14:34.408Z,22.10
2018-04-26T06:17:01.877Z,15.40
2018-04-26T06:19:29.341Z,15.87
2018-04-26T06:21:56.818Z,14.33
2018-04-26T06:24:24.267Z,16.27
2018-04-26T06:26:52.505Z,16.97
2018-04-26T06:29:19.969Z,18.30
2018-04-26T06:31:47.436Z,15.50
2018-04-26T06:34:14.893Z,15.93
2018-04-26T06:36:43.137Z,16.67
2018-04-26T06:39:10.598Z,17.00
2018-04-26T06:41:38.066Z,18.73
2018-04-26T06:44:05.515Z,21.90
2018-04-26T06:46:32.983Z,23.47
2018-04-26T06:49:00.453Z,21.60
2018-04-26T06:51:27.929Z,21.47
2018-04-26T06:53:55.400Z,20.87
2018-04-26T06:56:22.861Z,21.77
2018-04-26T06:58:50.326Z,20.77
2018-04-26T07:01:17.794Z,21.60
2018-04-26T07:03:45.244Z,20.77
2018-04-26T07:06:12.704Z,17.33
2018-04-26T07:08:40.156Z,15.47
2018-04-26T07:11:08.401Z,16.17
2018-04-26T07:13:35.851Z,13.53
2018-04-26T07:16:03.320Z,16.40
2018-04-26T07:18:31.536Z,14.27
2018-04-26T07:20:59.011Z,14.00
2018-04-26T07:23:27.239Z,17.97
2018-04-26T07:25:55.625Z,15.77
2018-04-26T07:28:23.121Z,12.60
2018-04-26T07:30:50.574Z,6.20
2018-04-26T07:33:18.019Z,4.73
2018-04-26T07:35:45.479Z,4.90
2018-04-26T07:38:12.934Z,4.07
2018-04-26T07:40:40.407Z,5.17
2018-04-26T07:43:08.786Z,4.67
2018-04-26T07:45:37.011Z,5.50
2018-04-26T07:48:05.219Z,6.90
2018-04-26T07:50:32.673Z,5.60
2018-04-26T07:53:00.896Z,6.70
2018-04-26T07:55:28.345Z,6.83
2018-04-26T07:57:55.808Z,6.90
2018-04-26T08:00:23.260Z,8.63
2018-04-26T08:02:50.733Z,9.30
2018-04-26T08:05:18.181Z,9.10
2018-04-26T08:07:46.405Z,8.03
2018-04-26T08:10:13.856Z,9.70
2018-04-26T08:12:42.085Z,8.03
2018-04-26T08:15:09.551Z,12.00
2018-04-26T08:17:37.776Z,10.67
2018-04-26T08:20:05.237Z,9.03
2018-04-26T08:22:32.714Z,11.50
2018-04-26T08:25:00.974Z,11.03
2018-04-26T08:27:28.402Z,9.30
2018-04-26T08:29:55.857Z,10.07
2018-04-26T08:32:23.314Z,9.90
2018-04-26T08:34:50.768Z,10.27
2018-04-26T08:37:18.223Z,8.30
2018-04-26T08:39:46.436Z,10.87
2018-04-26T08:42:13.897Z,9.00
2018-04-26T08:44:42.117Z,12.07
2018-04-26T08:47:09.565Z,8.97
2018-04-26T08:49:37.008Z,9.57
2018-04-26T08:52:04.478Z,10.90
2018-04-26T08:54:31.933Z,9.73
2018-04-26T08:57:00.172Z,10.43
2018-04-26T08:59:27.616Z,10.63
2018-04-26T09:01:55.082Z,10.40
2018-04-26T09:04:23.296Z,10.33
2018-04-26T09:06:50.798Z,9.83
2018-04-26T09:09:18.202Z,10.57
2018-04-26T09:11:45.656Z,9.87
2018-04-26T09:14:13.118Z,10.00
2018-04-26T09:16:40.576Z,11.60
2018-04-26T09:19:08.029Z,11.57
2018-04-26T09:21:35.488Z,12.00
2018-04-26T09:24:02.937Z,12.40
2018-04-26T09:26:31.201Z,12.87
2018-04-26T09:28:58.661Z,14.73
2018-04-26T09:31:26.125Z,12.93
2018-04-26T09:33:53.572Z,12.70
2018-04-26T09:36:21.809Z,12.93
2018-04-26T09:38:49.342Z,13.03
2018-04-26T09:41:17.505Z,13.43
2018-04-26T09:43:44.949Z,11.00
2018-04-26T09:46:13.173Z,11.10
2018-04-26T09:48:40.712Z,10.30
2018-04-26T09:51:08.854Z,9.03
2018-04-26T09:53:36.321Z,11.03
2018-04-26T09:56:03.768Z,9.90
2018-04-26T09:58:31.261Z,8.30
2018-04-26T10:00:58.685Z,9.97
2018-04-26T10:03:26.918Z,8.80
2018-04-26T10:05:57.192Z,9.47
2018-04-26T10:08:24.644Z,10.23
2018-04-26T10:10:52.088Z,11.27
2018-04-26T10:13:19.554Z,10.57
2018-04-26T10:15:47.009Z,11.10
2018-04-26T10:18:14.468Z,8.93
2018-04-26T10:20:41.925Z,10.40
2018-04-26T10:23:09.379Z,8.90
2018-04-26T10:25:37.596Z,9.00
2018-04-26T10:28:05.052Z,8.23
2018-04-26T10:30:33.273Z,6.87
2018-04-26T10:33:00.731Z,6.77
2018-04-26T10:35:28.189Z,6.87
2018-04-26T10:37:55.640Z,8.43
2018-04-26T10:40:23.087Z,6.30
2018-04-26T10:42:50.539Z,7.20
2018-04-26T10:45:17.994Z,7.53
2018-04-26T10:47:45.455Z,7.60
2018-04-26T10:50:12.909Z,7.23
2018-04-26T10:52:41.131Z,6.27
2018-04-26T10:55:08.583Z,7.30
2018-04-26T10:57:36.032Z,6.43
2018-04-26T11:00:03.572Z,7.30
2018-04-26T11:02:30.940Z,7.10
2018-04-26T11:04:59.153Z,8.23
2018-04-26T11:07:26.616Z,6.50
2018-04-26T11:09:54.067Z,6.40
2018-04-26T11:12:21.525Z,6.33
2018-04-26T11:14:48.968Z,6.90
2018-04-26T11:17:16.478Z,6.53
2018-04-26T11:19:44.652Z,6.60
2018-04-26T11:22:12.106Z,6.30
2018-04-26T11:24:39.554Z,7.50
2018-04-26T11:27:07.000Z,6.23
2018-04-26T11:29:34.457Z,6.27
2018-04-26T11:32:01.927Z,7.10
2018-04-26T11:34:29.376Z,6.43
2018-04-26T11:36:56.828Z,7.27
2018-04-26T11:39:24.291Z,7.70
2018-04-26T11:41:52.505Z,8.00
2018-04-26T11:44:19.960Z,6.60
2018-04-26T11:46:47.475Z,6.73
2018-04-26T11:49:14.866Z,6.60
2018-04-26T11:51:42.313Z,5.50
2018-04-26T11:54:10.549Z,5.83
2018-04-26T11:56:38.005Z,6.30
2018-04-26T11:59:06.228Z,5.27
2018-04-26T12:01:33.692Z,6.00
2018-04-26T12:04:01.904Z,5.80
2018-04-26T12:06:29.358Z,5.83
2018-04-26T12:08:57.626Z,5.77
2018-04-26T12:11:25.090Z,5.97
2018-04-26T12:13:52.545Z,6.30
2018-04-26T12:16:19.994Z,7.40
2018-04-26T12:18:47.449Z,6.40
2018-04-26T12:21:14.901Z,6.20
2018-04-26T12:23:42.357Z,6.70
2018-04-26T12:26:10.564Z,6.60
2018-04-26T12:28:38.032Z,6.73
2018-04-26T12:31:06.977Z,6.40
2018-04-26T12:33:34.433Z,7.10
2018-04-26T12:36:02.668Z,6.07
2018-04-26T12:38:30.126Z,6.27
2018-04-26T12:40:57.572Z,6.90
2018-04-26T12:43:25.026Z,6.90
2018-04-26T12:45:52.473Z,6.60
2018-04-26T12:48:19.924Z,6.93
2018-04-26T12:50:47.373Z,9.00
2018-04-26T12:53:14.824Z,8.10
2018-04-26T12:55:42.269Z,6.60
2018-04-26T12:58:09.775Z,5.40
2018-04-26T13:00:37.169Z,4.90
2018-04-26T13:03:04.611Z,5.33
2018-04-26T13:05:32.056Z,4.70
2018-04-26T13:07:59.524Z,5.23
2018-04-26T13:10:26.969Z,5.27
2018-04-26T13:12:55.187Z,6.20
2018-04-26T13:15:22.628Z,6.70
2018-04-26T13:17:50.095Z,7.63
2018-04-26T13:20:17.547Z,7.33
2018-04-26T13:22:45.005Z,6.30
2018-04-26T13:25:13.216Z,7.87
2018-04-26T13:27:40.676Z,7.73
2018-04-26T13:30:08.884Z,8.50
2018-04-26T13:32:37.119Z,8.53
2018-04-26T13:35:04.569Z,10.37
2018-04-26T13:37:32.787Z,9.23
2018-04-26T13:40:00.234Z,9.90
2018-04-26T13:42:27.681Z,9.40
2018-04-26T13:44:55.131Z,9.97
2018-04-26T13:47:22.575Z,9.00
2018-04-26T13:49:50.798Z,9.07
2018-04-26T13:52:18.240Z,9.70
2018-04-26T13:54:45.698Z,11.90
2018-04-26T13:57:13.144Z,11.50
2018-04-26T13:59:40.602Z,9.50
2018-04-26T14:02:08.041Z,8.90
2018-04-26T14:04:35.496Z,7.50
2018-04-26T14:07:02.953Z,9.20
2018-04-26T14:09:30.424Z,8.10
2018-04-26T14:11:57.889Z,8.30
2018-04-26T14:14:25.955Z,8.53
2018-04-26T14:16:53.620Z,8.30
2018-04-26T14:19:21.068Z,8.83
2018-04-26T14:21:48.506Z,8.60
2018-04-26T14:24:15.951Z,9.47
2018-04-26T14:26:44.167Z,10.30
2018-04-26T14:29:11.617Z,8.80
2018-04-26T14:31:39.059Z,10.07
2018-04-26T14:34:06.513Z,10.93
2018-04-26T14:36:33.964Z,11.80
2018-04-26T14:39:02.197Z,11.60
2018-04-26T14:41:29.654Z,11.30
2018-04-26T14:43:57.876Z,11.63
2018-04-26T14:46:25.321Z,10.60
2018-04-26T14:48:52.768Z,10.93
2018-04-26T14:51:20.219Z,11.40
2018-04-26T14:53:47.673Z,12.10
2018-04-26T14:56:15.875Z,11.37
2018-04-26T14:58:44.112Z,11.77
2018-04-26T15:01:11.556Z,11.30
2018-04-26T15:03:39.785Z,12.50
2018-04-26T15:06:07.238Z,10.97
2018-04-26T15:08:35.457Z,10.67
2018-04-26T15:11:02.900Z,11.27
2018-04-26T15:13:30.365Z,11.23
2018-04-26T15:15:57.808Z,9.80
2018-04-26T15:18:25.268Z,10.50
2018-04-26T15:20:53.513Z,11.67
2018-04-26T15:23:20.971Z,11.30
2018-04-26T15:25:48.421Z,11.03
2018-04-26T15:28:16.649Z,10.73
2018-04-26T15:30:47.138Z,10.53
2018-04-26T15:33:14.588Z,10.90
2018-04-26T15:35:42.041Z,11.40
2018-04-26T15:38:10.258Z,11.67
2018-04-26T15:40:37.707Z,12.10
2018-04-26T15:43:05.160Z,12.03
2018-04-26T15:45:32.616Z,11.77
2018-04-26T15:48:00.083Z,10.93
2018-04-26T15:53:44.484Z,12.00
2018-04-26T15:56:21.633Z,13.90
2018-04-26T16:02:25.821Z,13.43
2018-04-26T16:05:10.948Z,12.73
2018-04-26T16:07:55.898Z,12.80
2018-04-26T16:10:40.985Z,12.70
2018-04-26T16:16:43.188Z,12.30
2018-04-26T16:19:34.221Z,13.10
2018-04-26T16:22:21.232Z,13.30
2018-04-26T16:25:01.393Z,13.30
2018-04-26T16:27:43.399Z,10.93
2018-04-26T16:30:22.754Z,11.57
2018-04-26T16:33:05.129Z,11.03
2018-04-26T16:35:44.385Z,10.03
2018-04-26T16:38:24.322Z,10.90
2018-04-26T16:40:51.784Z,11.10
2018-04-26T16:43:19.235Z,10.33
2018-04-26T16:45:46.678Z,8.27
2018-04-26T16:48:14.116Z,7.37
2018-04-26T16:50:49.212Z,7.03
2018-04-26T16:53:26.811Z,7.83
2018-04-26T16:55:54.262Z,9.23
2018-04-26T16:58:21.712Z,7.60
2018-04-26T17:00:49.157Z,7.20
2018-04-26T17:03:16.600Z,6.53
2018-04-26T17:05:44.050Z,6.87
2018-04-26T17:08:11.491Z,9.20
2018-04-26T17:10:38.960Z,7.43
2018-04-26T17:13:06.418Z,7.80
2018-04-26T17:15:34.624Z,8.13
2018-04-26T17:18:27.132Z,8.30
2018-04-26T17:20:55.652Z,9.10
2018-04-26T17:23:23.803Z,8.83
2018-04-26T17:25:51.254Z,10.60
2018-04-26T17:28:18.714Z,10.17
2018-04-26T17:30:46.158Z,10.17
2018-04-26T17:33:15.545Z,9.77
2018-04-26T17:35:42.984Z,9.83
2018-04-26T17:38:10.450Z,11.07
2018-04-26T17:40:37.906Z,11.10
2018-04-26T17:43:06.131Z,10.77
2018-04-26T17:45:34.495Z,12.60
2018-04-26T17:48:13.828Z,7.10
2018-04-26T17:50:41.286Z,5.40
2018-04-26T17:53:08.741Z,7.50
2018-04-26T17:55:37.129Z,9.93
2018-04-26T17:58:05.361Z,10.87
2018-04-26T18:00:32.825Z,11.30
2018-04-26T18:03:00.285Z,9.17
2018-04-26T18:05:28.683Z,10.50
2018-04-26T18:07:56.141Z,9.10
2018-04-26T18:10:27.132Z,7.50
2018-04-26T18:12:54.587Z,8.03
2018-04-26T18:15:34.253Z,8.30
2018-04-26T18:18:16.674Z,7.07
2018-04-26T18:20:44.125Z,6.60
2018-04-26T18:23:11.575Z,7.03
2018-04-26T18:25:39.026Z,6.90
2018-04-26T18:28:06.485Z,8.63
2018-04-26T18:30:33.924Z,7.60
2018-04-26T18:33:04.381Z,6.43
2018-04-26T18:35:31.828Z,7.27
2018-04-26T18:37:59.295Z,6.30
2018-04-26T18:40:40.068Z,8.07
2018-04-26T18:43:28.175Z,6.97
2018-04-26T18:45:55.630Z,8.50
2018-04-26T18:51:16.183Z,8.27
2018-04-26T18:53:44.394Z,10.10
2018-04-26T18:56:11.836Z,9.70
2018-04-26T18:58:39.300Z,9.73
2018-04-26T19:01:06.756Z,10.77
2018-04-26T19:03:34.221Z,11.30
2018-04-26T19:06:01.681Z,11.40
2018-04-26T19:08:53.972Z,11.90
2018-04-26T19:11:21.361Z,13.07
2018-04-26T19:13:48.843Z,15.27
2018-04-26T19:16:16.300Z,13.63
2018-04-26T19:18:43.760Z,14.00
2018-04-26T19:21:11.993Z,17.07
2018-04-26T19:23:39.451Z,16.93
2018-04-26T19:26:07.677Z,19.33
2018-04-26T19:28:35.150Z,18.10
2018-04-26T19:31:02.604Z,17.77
2018-04-26T19:33:30.836Z,17.23
2018-04-26T19:35:58.300Z,20.40
2018-04-26T19:38:26.562Z,17.63
2018-04-26T19:40:53.997Z,17.70
2018-04-26T19:43:21.469Z,13.10
2018-04-26T19:45:49.730Z,11.97
2018-04-26T19:48:19.239Z,13.40
2018-04-26T19:50:47.693Z,18.97
2018-04-26T19:53:15.164Z,16.50
2018-04-26T19:55:42.629Z,18.30
2018-04-26T19:58:10.098Z,17.13
2018-04-26T20:03:30.789Z,14.30
2018-04-26T20:05:58.249Z,11.20
2018-04-26T20:08:27.427Z,18.83
2018-04-26T20:10:54.901Z,21.63
2018-04-26T20:13:22.365Z,16.70
2018-04-26T20:18:42.882Z,14.10
2018-04-26T20:21:10.397Z,96.50
2018-04-26T20:23:38.589Z,153.47
2018-04-26T20:26:06.049Z,38.87
2018-04-26T20:28:34.428Z,15.63
2018-04-26T20:31:02.653Z,16.13
2018-04-26T20:33:30.116Z,85.53
2018-04-26T20:35:58.340Z,17.20
2018-04-26T20:38:25.816Z,18.30
2018-04-26T20:40:54.028Z,14.53
2018-04-26T20:43:21.500Z,18.67
2018-04-26T20:45:48.957Z,21.80
2018-04-26T20:48:28.177Z,15.43
2018-04-26T20:50:55.628Z,15.20
2018-04-26T20:53:23.093Z,17.77
2018-04-26T20:55:51.320Z,18.83
2018-04-26T20:58:18.781Z,17.20
2018-04-26T21:00:46.245Z,19.77
2018-04-26T21:03:13.709Z,19.73
2018-04-26T21:05:41.170Z,17.70
2018-04-26T21:08:08.645Z,17.80
2018-04-26T21:10:36.108Z,18.50
2018-04-26T21:13:03.569Z,21.40
2018-04-26T21:15:32.790Z,19.30
2018-04-26T21:18:01.025Z,21.20
2018-04-26T21:20:29.384Z,22.00
2018-04-26T21:22:56.849Z,21.43
2018-04-26T21:28:17.612Z,17.47
2018-04-26T21:30:45.110Z,18.57
2018-04-26T21:33:12.537Z,17.70
2018-04-26T21:35:40.101Z,23.73
2018-04-26T21:38:08.220Z,25.30
2018-04-26T21:40:41.104Z,26.20
2018-04-26T21:46:06.685Z,30.17
2018-04-26T21:48:34.153Z,30.90
2018-04-26T21:51:07.212Z,30.73
2018-04-26T21:53:40.376Z,27.43
2018-04-26T21:56:30.459Z,13.10
2018-04-26T21:59:09.604Z,18.10
2018-04-26T22:01:47.279Z,23.50
2018-04-26T22:04:20.433Z,24.13
2018-04-26T22:06:47.894Z,40.53
2018-04-26T22:09:23.469Z,219.20
2018-04-26T22:11:51.688Z,85.97
2018-04-26T22:14:19.164Z,71.20
2018-04-26T22:16:46.625Z,377.80
2018-04-26T22:19:14.097Z,287.67
2018-04-26T22:21:41.561Z,24.50
2018-04-26T22:24:09.025Z,23.27
2018-04-26T22:26:36.489Z,22.03
2018-04-26T22:29:03.952Z,25.20
2018-04-26T22:31:32.172Z,27.10
2018-04-26T22:33:59.640Z,26.77
2018-04-26T22:36:28.845Z,18.97
2018-04-26T22:38:56.313Z,22.80
2018-04-26T22:41:27.094Z,22.80
2018-04-26T22:43:55.319Z,23.93
2018-04-26T22:46:22.783Z,21.50
2018-04-26T22:48:50.252Z,20.50
2018-04-26T22:51:18.485Z,17.67
2018-04-26T22:53:45.954Z,22.83
2018-04-26T22:56:13.404Z,21.63
2018-04-26T22:58:40.884Z,29.17
2018-04-26T23:01:09.298Z,26.93
2018-04-26T23:03:55.369Z,28.70
2018-04-26T23:06:22.822Z,26.27
2018-04-26T23:08:50.287Z,29.37
2018-04-26T23:11:18.514Z,27.30
2018-04-26T23:13:45.985Z,24.90
2018-04-26T23:16:13.447Z,22.70
2018-04-26T23:18:40.924Z,24.20
2018-04-26T23:21:08.380Z,23.30
2018-04-26T23:23:35.845Z,27.63
2018-04-26T23:26:03.297Z,27.47
2018-04-26T23:28:30.770Z,31.97
2018-04-26T23:30:59.000Z,33.07
2018-04-26T23:33:26.469Z,31.40
2018-04-26T23:35:54.501Z,28.93
2018-04-26T23:38:21.977Z,30.03
2018-04-26T23:40:49.433Z,37.20
2018-04-26T23:43:16.896Z,27.07
2018-04-26T23:45:44.361Z,36.10
2018-04-26T23:48:24.834Z,24.23
2018-04-26T23:50:52.290Z,24.80
2018-04-26T23:53:19.757Z,33.50
2018-04-26T23:55:47.220Z,36.57
2018-04-26T23:58:14.679Z,23.00
